Time;durP1;ratioP1;P1;durP2;ratioP2;P2;SDS_P1;SDS_P2;PMS_P1;PMS_P2;Temp;Humidity;BMP_temperature;BMP_pressure;BME280_temperature;BME280_humidity;BME280_pressure;Samples;Min_cycle;Max_cycle;Signal;HPM_P1;HPM_P2
2021/06/01 17:41:38;;;;;;;356.83;38.00;;;25.50;67.60;;;;;;5073899;28;20357;-56
2021/06/01 17:44:05;;;;;;;19.15;6.65;;;25.00;69.70;;;;;;5057405;28;20032;-57
2021/06/01 17:46:35;;;;;;;133.20;32.97;;;24.90;66.00;;;;;;5059504;28;20021;-58
2021/06/01 17:49:01;;;;;;;72.00;19.05;;;24.80;68.00;;;;;;5058572;28;20066;-58
2021/06/01 17:51:29;;;;;;;90.55;22.40;;;24.70;67.00;;;;;;5059622;28;20037;-58
2021/06/01 17:53:56;;;;;;;44.78;14.82;;;24.70;67.70;;;;;;5060798;28;20035;-58
2021/06/01 17:56:28;;;;;;;34.83;11.43;;;24.70;67.90;;;;;;5059078;28;20109;-57
2021/06/01 17:58:55;;;;;;;33.53;11.52;;;24.70;68.20;;;;;;5058119;28;20638;-58
2021/06/01 18:01:23;;;;;;;34.95;8.48;;;24.60;68.20;;;;;;5061434;28;20045;-57
2021/06/01 18:06:15;;;;;;;21.98;6.43;;;24.60;70.30;;;;;;5062552;28;20155;-57
2021/06/01 18:08:52;;;;;;;50.78;15.35;;;24.50;67.40;;;;;;5054318;28;20091;-58
2021/06/01 18:37:09;;;;;;;3.65;1.98;;;23.60;72.00;;;;;;5054513;28;20091;-57
2021/06/01 18:42:51;;;;;;;2.35;1.83;;;23.50;73.00;;;;;;5056853;28;20402;-58
2021/06/01 19:27:08;;;;;;;4.85;2.38;;;21.90;80.70;;;;;;5040994;28;20060;-57
2021/06/01 19:51:23;;;;;;;3.30;2.20;;;20.40;84.40;;;;;;5043368;28;20750;-54
2021/06/01 19:53:50;;;;;;;3.00;2.17;;;20.30;86.20;;;;;;5042253;28;20491;-57
2021/06/01 19:56:17;;;;;;;3.67;2.45;;;20.20;85.50;;;;;;5041313;28;20037;-55
2021/06/01 19:58:43;;;;;;;2.03;1.80;;;20.10;86.30;;;;;;5040221;28;20128;-56
2021/06/01 20:01:10;;;;;;;5.35;2.05;;;20.00;85.30;;;;;;5047352;28;20497;-57
2021/06/01 20:03:37;;;;;;;4.10;1.85;;;19.90;85.90;;;;;;5040718;28;20121;-56
2021/06/01 20:06:06;;;;;;;4.43;2.13;;;19.90;85.80;;;;;;5044334;28;20116;-54
2021/06/01 20:08:33;;;;;;;3.05;2.20;;;19.90;85.50;;;;;;5039856;28;20107;-56
2021/06/01 20:10:59;;;;;;;4.60;2.60;;;19.90;86.30;;;;;;5040523;28;20509;-58
2021/06/01 20:13:25;;;;;;;2.42;2.22;;;19.80;87.10;;;;;;5043627;28;20073;-59
2021/06/01 20:15:52;;;;;;;3.22;2.15;;;19.70;88.10;;;;;;5041590;28;20033;-56
2021/06/01 20:18:25;;;;;;;3.20;2.22;;;19.60;88.60;;;;;;5041287;28;20427;-57
2021/06/01 20:20:55;;;;;;;2.33;2.03;;;19.50;89.80;;;;;;5040578;28;20065;-54
2021/06/01 20:23:23;;;;;;;2.75;2.22;;;19.30;90.40;;;;;;5035808;28;20028;-54
2021/06/01 20:25:51;;;;;;;4.00;2.75;;;19.30;90.50;;;;;;5035565;28;20025;-54
2021/06/01 20:28:20;;;;;;;4.10;3.03;;;19.20;90.90;;;;;;5037604;28;20017;-56
2021/06/01 20:30:47;;;;;;;4.40;3.35;;;19.10;90.60;;;;;;5042773;28;20017;-56
2021/06/01 20:33:18;;;;;;;8.02;3.13;;;19.00;91.40;;;;;;5040983;28;20036;-56
2021/06/01 20:35:53;;;;;;;4.85;2.70;;;18.90;91.90;;;;;;5040817;28;20025;-58
2021/06/01 20:38:21;;;;;;;7.88;3.00;;;18.80;92.50;;;;;;5037677;28;20072;-56
2021/06/01 20:40:48;;;;;;;3.92;3.05;;;18.60;92.80;;;;;;5043713;28;20036;-57
2021/06/01 20:43:14;;;;;;;2.40;2.20;;;18.50;93.80;;;;;;5042729;28;20021;-57
2021/06/01 20:45:42;;;;;;;7.93;3.78;;;18.40;94.30;;;;;;5045196;28;20401;-57
2021/06/01 20:48:18;;;;;;;5.60;3.20;;;18.30;94.30;;;;;;5041637;28;20060;-57
2021/06/01 20:50:45;;;;;;;6.00;2.90;;;18.30;93.90;;;;;;5041890;28;20563;-58
2021/06/01 20:53:12;;;;;;;4.80;2.80;;;18.20;94.10;;;;;;5047503;28;20052;-57
2021/06/01 20:55:40;;;;;;;8.77;3.13;;;18.10;94.30;;;;;;5046551;28;20020;-58
2021/06/01 20:58:18;;;;;;;3.42;2.90;;;18.00;94.30;;;;;;5045922;28;20052;-58
2021/06/01 21:00:44;;;;;;;6.18;3.10;;;18.00;95.10;;;;;;5038841;28;20056;-57
2021/06/01 21:03:11;;;;;;;4.47;3.47;;;17.90;97.00;;;;;;5046314;28;20098;-55
2021/06/01 21:05:38;;;;;;;5.22;2.67;;;17.80;97.80;;;;;;5045911;28;20056;-58
2021/06/01 21:08:06;;;;;;;5.38;3.15;;;17.60;98.40;;;;;;5040732;28;20032;-59
2021/06/01 21:10:33;;;;;;;10.82;4.03;;;17.50;98.50;;;;;;5036894;28;20037;-58
2021/06/01 21:13:00;;;;;;;5.68;3.60;;;17.40;99.10;;;;;;5043602;28;20087;-58
2021/06/01 21:15:26;;;;;;;6.05;3.85;;;17.50;99.80;;;;;;5044441;28;20059;-58
2021/06/01 21:17:52;;;;;;;10.73;5.47;;;17.40;99.90;;;;;;5044669;28;20372;-59
2021/06/01 21:20:20;;;;;;;6.28;4.15;;;17.40;99.90;;;;;;5043446;28;20038;-58
2021/06/01 21:22:48;;;;;;;6.15;4.30;;;17.20;99.90;;;;;;5040881;28;20091;-58
2021/06/01 21:25:17;;;;;;;12.65;4.43;;;17.20;99.90;;;;;;5042049;28;20040;-58
2021/06/01 21:27:45;;;;;;;5.35;3.83;;;17.10;99.90;;;;;;5045003;28;20028;-58
2021/06/01 21:30:12;;;;;;;8.77;6.15;;;17.00;99.90;;;;;;5049629;28;20423;-56
2021/06/01 21:32:45;;;;;;;11.38;6.13;;;17.00;99.90;;;;;;5050383;28;20468;-58
2021/06/01 21:35:13;;;;;;;8.75;7.38;;;16.90;99.90;;;;;;5043538;28;20033;-60
2021/06/01 21:37:49;;;;;;;10.38;6.22;;;16.90;99.90;;;;;;5039357;28;20060;-61
2021/06/01 21:40:20;;;;;;;8.02;4.97;;;16.70;99.90;;;;;;5069820;22;20022;-54
2021/06/01 21:42:46;;;;;;;5.47;4.78;;;16.60;99.90;;;;;;5070978;28;20830;-58
2021/06/01 21:45:16;;;;;;;11.63;4.85;;;16.50;99.90;;;;;;5081999;28;20032;-56
2021/06/01 21:47:54;;;;;;;10.05;5.07;;;16.50;99.90;;;;;;5069328;28;20033;-51
2021/06/01 21:50:24;;;;;;;5.28;4.55;;;16.40;99.90;;;;;;5074108;28;20042;-54
2021/06/01 21:52:50;;;;;;;9.68;4.82;;;16.40;99.90;;;;;;5071831;28;20032;-57
2021/06/01 21:55:21;;;;;;;6.28;5.00;;;16.30;99.90;;;;;;5080313;28;20029;-58
2021/06/01 21:57:48;;;;;;;6.97;4.65;;;16.20;99.90;;;;;;5069921;28;20036;-57
2021/06/01 22:00:19;;;;;;;12.32;5.30;;;16.10;99.90;;;;;;5069444;28;20037;-55
2021/06/01 22:02:48;;;;;;;5.80;4.93;;;16.00;99.90;;;;;;5070588;28;20029;-56
2021/06/01 22:05:14;;;;;;;12.32;5.95;;;16.00;99.90;;;;;;5072087;28;20080;-56
2021/06/01 22:07:40;;;;;;;7.53;5.85;;;15.90;99.90;;;;;;5065267;28;20020;-54
2021/06/01 22:10:09;;;;;;;12.30;6.40;;;15.90;99.90;;;;;;5069657;28;20020;-58
2021/06/01 22:12:39;;;;;;;11.38;8.98;;;15.90;99.90;;;;;;5075011;28;20028;-57
2021/06/01 22:15:37;;;;;;;17.10;10.18;;;15.80;99.90;;;;;;5082109;28;20113;-58
2021/06/01 22:18:08;;;;;;;14.43;8.85;;;15.70;99.90;;;;;;5070696;28;20107;-55
2021/06/01 22:20:36;;;;;;;38.22;23.42;;;15.60;99.90;;;;;;5066457;28;20040;-58
2021/06/01 22:23:03;;;;;;;45.30;25.60;;;15.60;99.90;;;;;;5071074;28;20031;-59
2021/06/01 22:25:30;;;;;;;38.72;21.80;;;15.50;99.90;;;;;;5066886;28;20430;-56
2021/06/01 22:27:56;;;;;;;38.83;23.65;;;15.40;99.90;;;;;;5078269;28;20020;-57
2021/06/01 22:30:22;;;;;;;38.45;22.35;;;15.40;99.90;;;;;;5070786;28;20063;-53
2021/06/01 22:32:49;;;;;;;33.28;16.75;;;15.40;99.90;;;;;;5072353;28;20025;-58
2021/06/01 22:35:15;;;;;;;17.33;10.60;;;15.30;99.90;;;;;;5072813;28;20039;-56
2021/06/01 22:37:41;;;;;;;19.42;11.68;;;15.20;99.90;;;;;;5074271;28;20035;-57
2021/06/01 22:40:11;;;;;;;21.45;12.68;;;15.20;99.90;;;;;;5072699;28;20052;-57
2021/06/01 22:42:42;;;;;;;19.42;11.00;;;15.10;99.90;;;;;;5072247;28;20036;-58
2021/06/01 22:45:08;;;;;;;30.92;18.50;;;15.00;99.90;;;;;;5069238;28;20067;-57
2021/06/01 22:47:34;;;;;;;19.38;11.23;;;15.00;99.90;;;;;;5080730;28;20066;-54
2021/06/01 22:50:00;;;;;;;14.93;8.48;;;14.80;99.90;;;;;;5071075;28;20054;-55
2021/06/01 22:52:30;;;;;;;9.48;6.40;;;14.80;99.90;;;;;;5066826;28;20028;-51
2021/06/01 22:54:58;;;;;;;7.55;5.15;;;14.80;99.90;;;;;;5082652;28;20028;-57
2021/06/01 22:57:25;;;;;;;10.85;4.93;;;14.70;99.90;;;;;;5070281;28;20032;-53
2021/06/01 22:59:56;;;;;;;8.75;4.68;;;14.60;99.90;;;;;;5070753;28;20028;-55
2021/06/01 23:02:29;;;;;;;10.18;4.90;;;14.60;99.90;;;;;;5077643;28;20020;-59
2021/06/01 23:04:57;;;;;;;6.68;4.68;;;14.60;99.90;;;;;;5070936;28;20032;-58
2021/06/01 23:07:28;;;;;;;8.90;4.53;;;14.50;99.90;;;;;;5072581;28;20135;-54
2021/06/01 23:09:56;;;;;;;7.03;4.13;;;14.50;99.90;;;;;;5074281;28;20801;-57
2021/06/01 23:12:26;;;;;;;6.78;4.40;;;14.50;99.90;;;;;;5072086;28;20047;-56
2021/06/01 23:15:00;;;;;;;8.75;4.05;;;14.50;99.90;;;;;;5073729;28;20115;-57
2021/06/01 23:17:32;;;;;;;7.93;4.43;;;14.50;99.90;;;;;;5083567;28;20028;-59
2021/06/01 23:19:58;;;;;;;8.30;5.00;;;14.50;99.90;;;;;;5082433;28;20068;-58
2021/06/01 23:22:24;;;;;;;6.15;4.65;;;14.40;99.90;;;;;;5066680;28;20043;-58
2021/06/01 23:24:50;;;;;;;6.50;4.70;;;14.40;99.90;;;;;;5071368;28;20391;-54
2021/06/01 23:27:16;;;;;;;5.75;4.32;;;14.30;99.90;;;;;;5072351;28;20111;-56
2021/06/01 23:29:43;;;;;;;6.15;4.57;;;14.30;99.90;;;;;;5072255;28;20029;-55
2021/06/01 23:32:10;;;;;;;9.18;4.18;;;14.30;99.90;;;;;;5068815;28;20375;-55
2021/06/01 23:34:36;;;;;;;9.27;4.90;;;14.30;99.90;;;;;;5074057;28;20031;-54
2021/06/01 23:37:03;;;;;;;10.40;5.03;;;14.40;99.90;;;;;;5080315;28;20043;-56
2021/06/01 23:39:37;;;;;;;6.93;5.07;;;14.40;99.90;;;;;;5076915;28;20115;-54
2021/06/01 23:42:03;;;;;;;9.43;4.78;;;14.30;99.90;;;;;;5061342;28;20047;-57
2021/06/01 23:44:29;;;;;;;7.25;5.10;;;14.20;99.90;;;;;;5069051;28;20043;-54
2021/06/01 23:47:04;;;;;;;9.20;5.22;;;14.20;99.90;;;;;;5070357;28;20415;-54
2021/06/01 23:52:16;;;;;;;8.60;5.72;;;14.10;99.90;;;;;;5068543;28;20036;-58
2021/06/01 23:54:42;;;;;;;8.23;5.57;;;14.10;99.90;;;;;;5074175;28;20081;-56
2021/06/01 23:57:07;;;;;;;8.00;5.57;;;14.00;99.90;;;;;;5068581;28;20028;-55
2021/06/01 23:59:33;;;;;;;10.63;5.47;;;14.00;99.90;;;;;;5070806;28;20028;-58
